createdAt,value
2023-04-17T00:00:23.629Z,98.25
2023-04-17T00:05:13.807Z,98.60
2023-04-17T00:10:06.425Z,98.34
2023-04-17T00:14:56.170Z,98.88
2023-04-17T00:19:47.816Z,97.91
2023-04-17T00:24:37.396Z,97.61
2023-04-17T00:51:28.160Z,99.67
2023-04-17T00:56:17.981Z,100.00
2023-04-17T01:01:07.810Z,99.57
2023-04-17T01:05:59.780Z,99.58
2023-04-17T01:10:52.559Z,100.00
2023-04-17T01:15:43.230Z,100.00
2023-04-17T01:20:34.195Z,99.48
2023-04-17T01:25:26.693Z,99.41
2023-04-17T01:30:16.955Z,98.46
2023-04-17T01:35:14.954Z,98.65
2023-04-17T01:40:07.206Z,97.39
2023-04-17T01:44:59.968Z,97.37
2023-04-17T01:49:49.969Z,98.64
2023-04-17T01:54:41.979Z,99.26
2023-04-17T01:59:31.656Z,98.94
2023-04-17T02:04:28.946Z,100.00
2023-04-17T02:09:19.020Z,99.23
2023-04-17T02:14:08.548Z,99.37
2023-04-17T02:19:00.157Z,98.92
2023-04-17T02:23:52.392Z,99.05
2023-04-17T02:28:42.661Z,99.84
2023-04-17T02:33:32.529Z,99.06
2023-04-17T02:38:24.779Z,100.00
2023-04-17T02:43:17.508Z,99.75
2023-04-17T02:48:07.418Z,100.00
2023-04-17T02:52:57.466Z,100.00
2023-04-17T02:57:47.078Z,100.00
2023-04-17T03:02:40.015Z,100.00
2023-04-17T03:07:30.254Z,100.00
2023-04-17T03:12:20.406Z,100.00
2023-04-17T03:17:14.354Z,100.00
2023-04-17T03:22:07.288Z,100.00
2023-04-17T03:26:57.738Z,100.00
2023-04-17T03:31:51.254Z,100.00
2023-04-17T03:36:41.267Z,100.00
2023-04-17T03:41:34.625Z,100.00
2023-04-17T03:46:24.545Z,100.00
2023-04-17T03:51:15.614Z,100.00
2023-04-17T03:56:06.256Z,100.00
2023-04-17T04:01:04.162Z,100.00
2023-04-17T04:05:58.401Z,100.00
2023-04-17T04:10:48.348Z,100.00
2023-04-17T04:15:43.567Z,100.00
2023-04-17T04:20:37.609Z,100.00
2023-04-17T04:25:36.835Z,100.00
2023-04-17T04:30:39.854Z,100.00
2023-04-17T04:35:47.640Z,100.00
2023-04-17T04:40:41.282Z,100.00
2023-04-17T04:45:31.309Z,100.00
2023-04-17T04:50:24.303Z,100.00
2023-04-17T04:55:19.890Z,100.00
2023-04-17T05:00:15.585Z,100.00
2023-04-17T05:05:09.558Z,100.00
2023-04-17T05:09:59.770Z,100.00
2023-04-17T05:14:54.227Z,100.00
2023-04-17T05:19:44.514Z,100.00
2023-04-17T05:24:34.273Z,100.00
2023-04-17T05:29:24.953Z,100.00
2023-04-17T05:34:20.659Z,100.00
2023-04-17T05:39:10.703Z,100.00
2023-04-17T05:44:01.991Z,100.00
2023-04-17T05:48:51.719Z,100.00
2023-04-17T05:53:45.061Z,100.00
2023-04-17T05:58:36.303Z,100.00
2023-04-17T06:03:28.090Z,100.00
2023-04-17T06:08:32.664Z,100.00
2023-04-17T06:13:25.355Z,100.00
2023-04-17T06:18:17.945Z,100.00
2023-04-17T06:23:07.684Z,100.00
2023-04-17T06:27:57.294Z,100.00
2023-04-17T06:32:51.216Z,100.00
2023-04-17T06:37:42.521Z,100.00
2023-04-17T06:42:34.101Z,100.00
2023-04-17T06:47:25.302Z,99.59
2023-04-17T06:52:22.382Z,99.07
2023-04-17T06:57:14.545Z,98.86
2023-04-17T07:02:05.300Z,99.18
2023-04-17T07:06:55.063Z,99.12
2023-04-17T07:11:49.342Z,98.36
2023-04-17T07:16:39.237Z,97.37
2023-04-17T07:21:29.681Z,97.94
2023-04-17T07:26:19.650Z,97.77
2023-04-17T07:31:15.901Z,97.77
2023-04-17T07:36:08.209Z,98.68
2023-04-17T07:40:58.039Z,98.96
2023-04-17T07:45:49.596Z,99.37
2023-04-17T07:50:41.689Z,98.86
2023-04-17T07:55:31.476Z,98.73
2023-04-17T08:00:21.788Z,98.53
2023-04-17T08:05:12.322Z,97.45
2023-04-17T08:10:05.951Z,97.25
2023-04-17T08:14:56.381Z,95.99
2023-04-17T08:19:46.230Z,97.04
2023-04-17T08:24:35.947Z,97.21
2023-04-17T08:29:28.253Z,97.27
2023-04-17T08:34:18.136Z,97.43
2023-04-17T08:39:10.354Z,97.76
2023-04-17T08:44:02.265Z,97.70
2023-04-17T08:48:54.541Z,96.98
2023-04-17T08:53:44.115Z,96.76
2023-04-17T08:58:37.446Z,96.59
2023-04-17T09:03:27.436Z,96.48
2023-04-17T09:08:21.065Z,95.27
2023-04-17T09:13:14.591Z,95.08
2023-04-17T09:18:04.506Z,94.75
2023-04-17T09:23:03.429Z,92.87
2023-04-17T09:27:56.539Z,92.24
2023-04-17T09:32:48.421Z,90.73
2023-04-17T09:37:52.632Z,89.15
2023-04-17T09:42:58.655Z,89.40
2023-04-17T09:47:51.319Z,88.71
2023-04-17T09:52:41.860Z,88.52
2023-04-17T09:57:31.541Z,87.93
2023-04-17T10:02:23.998Z,84.81
2023-04-17T10:07:16.773Z,82.42
2023-04-17T10:12:08.402Z,80.68
2023-04-17T10:16:58.436Z,78.07
2023-04-17T10:21:50.931Z,78.02
2023-04-17T10:26:46.617Z,77.46
2023-04-17T10:31:51.536Z,75.37
2023-04-17T10:36:56.650Z,72.67
2023-04-17T10:42:02.412Z,73.69
2023-04-17T10:46:54.614Z,73.23
2023-04-17T10:51:46.482Z,74.78
2023-04-17T10:56:38.927Z,73.06
2023-04-17T11:01:30.404Z,72.54
2023-04-17T11:06:24.308Z,72.67
2023-04-17T11:11:14.600Z,70.60
2023-04-17T11:16:07.741Z,67.79
2023-04-17T11:20:59.484Z,64.35
2023-04-17T11:25:51.817Z,64.30
2023-04-17T11:30:45.257Z,66.19
2023-04-17T11:35:36.154Z,68.21
2023-04-17T11:40:29.049Z,64.83
2023-04-17T11:45:22.295Z,62.60
2023-04-17T11:50:13.687Z,66.06
2023-04-17T11:55:03.617Z,61.17
2023-04-17T11:59:54.646Z,58.82
2023-04-17T12:04:50.307Z,58.22
2023-04-17T12:09:39.935Z,59.15
2023-04-17T12:14:32.746Z,61.76
2023-04-17T12:19:26.918Z,57.71
2023-04-17T12:24:22.050Z,62.47
2023-04-17T12:29:12.038Z,66.05
2023-04-17T12:34:02.140Z,65.69
2023-04-17T12:38:52.066Z,65.16
2023-04-17T12:43:44.568Z,64.50
2023-04-17T12:48:39.475Z,63.48
2023-04-17T12:53:31.788Z,62.60
2023-04-17T12:58:21.510Z,53.30
2023-04-17T13:03:16.188Z,57.48
2023-04-17T13:08:06.995Z,60.73
2023-04-17T13:12:57.536Z,60.52
2023-04-17T13:17:47.698Z,60.43
2023-04-17T13:22:40.515Z,58.86
2023-04-17T13:27:35.602Z,58.93
2023-04-17T13:32:28.894Z,57.23
2023-04-17T13:37:19.141Z,58.01
2023-04-17T13:42:14.073Z,57.81
2023-04-17T13:47:04.076Z,57.59
2023-04-17T13:51:54.187Z,57.73
2023-04-17T13:56:43.885Z,55.50
2023-04-17T14:01:36.452Z,57.80
2023-04-17T14:06:28.390Z,57.74
2023-04-17T14:11:19.532Z,57.97
2023-04-17T14:16:09.468Z,59.76
2023-04-17T14:21:04.012Z,59.08
2023-04-17T14:25:53.638Z,57.66
2023-04-17T14:30:43.593Z,59.16
2023-04-17T14:35:36.317Z,60.44
2023-04-17T14:40:30.371Z,59.35
2023-04-17T14:45:20.131Z,57.22
2023-04-17T14:50:10.659Z,57.65
2023-04-17T14:55:00.404Z,58.79
2023-04-17T14:59:53.116Z,56.73
2023-04-17T15:04:48.652Z,55.69
2023-04-17T15:09:38.461Z,56.82
2023-04-17T15:14:30.076Z,57.05
2023-04-17T15:19:22.482Z,58.81
2023-04-17T15:24:14.033Z,56.60
2023-04-17T15:29:05.490Z,54.77
2023-04-17T15:33:55.219Z,55.37
2023-04-17T15:38:47.642Z,57.08
2023-04-17T15:43:39.774Z,54.86
2023-04-17T15:48:30.064Z,55.62
2023-04-17T15:53:19.926Z,55.85
2023-04-17T15:58:12.152Z,55.14
2023-04-17T16:03:03.466Z,56.03
2023-04-17T16:07:53.368Z,55.61
2023-04-17T16:12:43.525Z,56.61
2023-04-17T16:17:35.909Z,57.62
2023-04-17T16:22:25.980Z,60.06
2023-04-17T16:27:24.165Z,60.02
2023-04-17T16:32:14.638Z,59.83
2023-04-17T16:37:06.953Z,59.22
2023-04-17T16:41:57.959Z,59.45
2023-04-17T16:51:42.034Z,59.49
2023-04-17T16:56:34.255Z,60.49
2023-04-17T17:01:23.994Z,61.24
2023-04-17T17:06:13.697Z,62.05
2023-04-17T17:11:03.772Z,61.74
2023-04-17T17:15:58.294Z,62.34
2023-04-17T17:20:48.278Z,63.55
2023-04-17T17:25:38.315Z,63.07
2023-04-17T17:30:28.243Z,63.91
2023-04-17T17:35:20.604Z,64.25
2023-04-17T17:40:10.994Z,63.79
2023-04-17T17:45:00.641Z,64.17
2023-04-17T17:49:52.724Z,64.24
2023-04-17T17:54:45.156Z,65.85
2023-04-17T17:59:34.867Z,65.55
2023-04-17T18:04:29.371Z,64.97
2023-04-17T18:09:20.692Z,65.48
2023-04-17T18:14:13.491Z,65.81
2023-04-17T18:19:05.061Z,66.00
2023-04-17T18:23:56.216Z,67.18
2023-04-17T18:28:45.864Z,67.97
2023-04-17T18:33:38.179Z,67.44
2023-04-17T18:38:27.748Z,67.95
2023-04-17T18:43:17.278Z,67.91
2023-04-17T18:48:07.117Z,69.22
2023-04-17T18:52:59.843Z,70.55
2023-04-17T18:57:49.518Z,72.57
2023-04-17T19:02:41.566Z,73.42
2023-04-17T19:07:32.322Z,72.88
2023-04-17T19:12:26.082Z,73.66
2023-04-17T19:17:16.242Z,75.33
2023-04-17T19:22:06.142Z,74.93
2023-04-17T19:26:58.003Z,75.89
2023-04-17T19:31:51.661Z,77.60
2023-04-17T19:36:42.755Z,78.64
2023-04-17T19:41:32.678Z,78.26
2023-04-17T19:46:22.876Z,77.47
2023-04-17T19:51:16.002Z,82.23
2023-04-17T19:56:08.276Z,81.08
2023-04-17T20:00:58.632Z,81.46
2023-04-17T20:05:48.189Z,81.22
2023-04-17T20:10:40.399Z,82.30
2023-04-17T20:15:30.039Z,81.97
2023-04-17T20:20:19.792Z,83.29
2023-04-17T20:25:11.531Z,83.25
2023-04-17T20:30:03.952Z,83.26
2023-04-17T20:34:55.387Z,83.71
2023-04-17T20:39:47.619Z,84.26
2023-04-17T20:44:37.530Z,84.80
2023-04-17T20:49:32.070Z,85.57
2023-04-17T20:54:26.363Z,83.98
2023-04-17T20:59:16.002Z,85.21
2023-04-17T21:04:05.999Z,85.89
2023-04-17T21:08:58.312Z,85.89
2023-04-17T21:13:49.035Z,84.80
2023-04-17T21:18:41.586Z,85.02
2023-04-17T21:23:31.384Z,86.31
2023-04-17T21:28:23.832Z,85.97
2023-04-17T21:33:13.517Z,85.96
2023-04-17T21:38:03.059Z,86.86
2023-04-17T21:42:52.647Z,85.04
2023-04-17T21:47:46.034Z,84.55
2023-04-17T21:52:35.906Z,85.83
2023-04-17T21:57:25.485Z,84.95
2023-04-17T22:02:15.021Z,84.77
2023-04-17T22:07:09.076Z,82.81
2023-04-17T22:11:58.997Z,82.43
2023-04-17T22:16:50.640Z,82.57
2023-04-17T22:21:40.288Z,82.15
2023-04-17T22:26:57.357Z,82.33
2023-04-17T22:32:08.373Z,81.05
2023-04-17T22:36:57.927Z,81.79
2023-04-17T22:41:47.573Z,83.57
2023-04-17T22:46:49.792Z,81.51
2023-04-17T22:51:55.495Z,83.75
2023-04-17T22:57:12.789Z,83.74
2023-04-17T23:02:23.470Z,83.95
2023-04-17T23:07:31.722Z,86.55
2023-04-17T23:12:21.310Z,85.39
2023-04-17T23:17:10.836Z,85.30
2023-04-17T23:22:03.794Z,86.63
2023-04-17T23:26:55.200Z,85.74
2023-04-17T23:31:45.762Z,88.03
2023-04-17T23:36:35.540Z,87.82
2023-04-17T23:41:29.820Z,86.61
2023-04-17T23:46:19.442Z,88.07
2023-04-17T23:51:09.133Z,88.74
2023-04-17T23:55:58.757Z,88.34
